Niceville — WDE9467 — position and weather

sailwx.info

Track history (hours):
 
Tides and Currents Weather Stations Pressure Air Temp Water Temp Dewpoint Dewpoint Depression Visibility Wind Speed Wind Dir Waves Ship Positions

Niceville

Owner: Kirby Inland Marine LP, Houston, TX. More information available from US FCC via Universal Licensing System and Coast Guard Vessel Documentation Center.

Last reported at 2018-Jul-22 00:58 UTC. Time now 2018-Jul-22 01:15 UTC.
Position N 28°54' W 095°23'.

Length 114 m; draft 2.6 m.

Type: . MMSI: 367417570.

Date/timePositionNaut miles runAvg speedWind from/ knotsBaromVisibWave heightAir tempDewpointWater temp
2018-Jul-22 00:58N 28°54' W 095°23'0 0.7
2018-Jul-22 00:22N 28°54' W 095°23'1 2.4
2018-Jul-21 23:49N 28°54' W 095°25'1 4.0
2018-Jul-21 23:29N 28°54' W 095°23'1 2.1
2018-Jul-21 23:00N 28°54' W 095°22'5 6.1
2018-Jul-21 22:06N 28°58' W 095°17'1 6.4
2018-Jul-21 21:59N 28°58' W 095°17'3 6.6
2018-Jul-21 21:29N 29°01' W 095°14'3 6.0
2018-Jul-21 21:00N 29°04' W 095°13'3 5.6
2018-Jul-21 20:30N 29°06' W 095°12'2 3.2
2018-Jul-21 20:00N 29°07' W 095°11'3 5.1
2018-Jul-21 19:30N 29°09' W 095°09'3 6.0
2018-Jul-21 19:00N 29°11' W 095°06'3 6.1
2018-Jul-21 18:30N 29°12' W 095°03'1 2.4
2018-Jul-21 18:00N 29°13' W 095°02'3 6.2
2018-Jul-21 17:30N 29°16' W 094°60'4 5.9
2018-Jul-21 16:51N 29°17' W 094°56'2 6.0
2018-Jul-21 16:30N 29°17' W 094°53'2 4.8
2018-Jul-21 16:00N 29°19' W 094°52'3 5.3
2018-Jul-21 15:29N 29°21' W 094°49'2 4.7
2018-Jul-21 15:00N 29°22' W 094°51'2 4.7
2018-Jul-21 14:30N 29°22' W 094°54'1 1.9
2018-Jul-21 14:00N 29°22' W 094°55'0 0.0
2018-Jul-21 13:27N 29°22' W 094°55'0 0.0
2018-Jul-21 13:00N 29°22' W 094°55'0 0.0
2018-Jul-21 12:24N 29°22' W 094°55'0 0.0
2018-Jul-21 11:57N 29°22' W 094°55'0 0.0
2018-Jul-21 11:27N 29°22' W 094°55'0 0.0
2018-Jul-21 10:39N 29°22' W 094°55'0 0.0
2018-Jul-21 10:00N 29°22' W 094°55'0 0.0
2018-Jul-21 08:36N 29°22' W 094°55'0 0.0
2018-Jul-21 06:09N 29°22' W 094°55'0 0.0
2018-Jul-21 05:54N 29°22' W 094°55'0 0.0
2018-Jul-21 05:15N 29°22' W 094°55'0 0.0
2018-Jul-21 04:54N 29°22' W 094°55'0 0.0
2018-Jul-21 04:27N 29°22' W 094°55'0 0.0
2018-Jul-21 03:57N 29°22' W 094°55'0 0.0
2018-Jul-21 03:18N 29°22' W 094°55'0 0.0
2018-Jul-21 03:00N 29°22' W 094°55'0 0.0
2018-Jul-21 02:24N 29°22' W 094°55'0 0.0
2018-Jul-21 02:00N 29°22' W 094°55'0 0.0
2018-Jul-21 01:24N 29°22' W 094°55'0 0.0
2018-Jul-21 01:00N 29°22' W 094°55'0 0.0
2018-Jul-21 00:30N 29°22' W 094°55'0 0.0
2018-Jul-21 00:00N 29°22' W 094°55'0 0.0
2018-Jul-20 23:18N 29°22' W 094°55'0 0.0
2018-Jul-20 23:00N 29°22' W 094°55'0 0.0
2018-Jul-20 22:21N 29°22' W 094°55'0 0.0
2018-Jul-20 21:54N 29°22' W 094°55'0 0.0
2018-Jul-20 21:30N 29°22' W 094°55'0 0.0
2018-Jul-20 21:00N 29°22' W 094°55'0 0.0
2018-Jul-20 20:30N 29°22' W 094°55'0 0.0
2018-Jul-20 20:00N 29°22' W 094°55'0 0.0
2018-Jul-20 19:30N 29°22' W 094°55'0 0.0
2018-Jul-20 19:00N 29°22' W 094°55'0 0.0
2018-Jul-20 18:30N 29°22' W 094°55'0 0.1
2018-Jul-20 17:59N 29°22' W 094°55'1 2.9
2018-Jul-20 17:30N 29°22' W 094°53'1 2.1
2018-Jul-20 17:00N 29°23' W 094°52'0 0.0
2018-Jul-20 16:25N 29°23' W 094°52'0 0.0
2018-Jul-20 13:31N 29°23' W 094°52'0 0.0
2018-Jul-20 13:28N 29°23' W 094°52'0 0.0
2018-Jul-20 12:58N 29°23' W 094°52'0 0.0
2018-Jul-20 12:30N 29°23' W 094°52'0 0.5
2018-Jul-20 12:00N 29°23' W 094°52'1 1.1
2018-Jul-20 10:56N 29°23' W 094°54'0 0.0
2018-Jul-20 10:29N 29°23' W 094°54'0 0.0
2018-Jul-20 08:47N 29°23' W 094°54'0 0.0
2018-Jul-20 07:50N 29°23' W 094°54'0 0.0
2018-Jul-20 07:29N 29°23' W 094°54'0 0.0
2018-Jul-20 06:47N 29°23' W 094°54'0 0.0
2018-Jul-20 06:20N 29°23' W 094°54'0 0.0
2018-Jul-20 05:59N 29°23' W 094°54'0 0.0
2018-Jul-20 05:26N 29°23' W 094°54'1 1.6
2018-Jul-20 04:57N 29°23' W 094°53'1 1.6
2018-Jul-20 04:30N 29°23' W 094°52'0 0.0
2018-Jul-20 04:00N 29°23' W 094°52'0 0.0
2018-Jul-20 03:24N 29°23' W 094°52'0 0.0
2018-Jul-20 03:00N 29°23' W 094°52'0 0.0
2018-Jul-20 02:30N 29°23' W 094°52'0 0.0
2018-Jul-20 02:00N 29°23' W 094°52'0 0.0
2018-Jul-20 01:30N 29°23' W 094°52'0 0.0
2018-Jul-20 00:57N 29°23' W 094°52'0 0.1
2018-Jul-20 00:29N 29°23' W 094°52'0 0.5
2018-Jul-20 00:00N 29°23' W 094°52'3 4.3
2018-Jul-19 23:15N 29°21' W 094°48'0 1.1
2018-Jul-19 22:52N 29°21' W 094°49'1 1.7
2018-Jul-19 22:30N 29°21' W 094°49'3 5.8
2018-Jul-19 22:00N 29°19' W 094°52'3 5.1
2018-Jul-19 21:30N 29°17' W 094°54'2 4.7
2018-Jul-19 21:00N 29°17' W 094°57'3 5.4
2018-Jul-19 20:30N 29°16' W 094°59'3 5.1
2018-Jul-19 20:00N 29°14' W 095°01'2 4.7
2018-Jul-19 19:30N 29°12' W 095°03'3 5.1
2018-Jul-19 19:00N 29°11' W 095°05'3 5.3
2018-Jul-19 18:30N 29°10' W 095°08'3 5.5
2018-Jul-19 18:00N 29°08' W 095°10'2 4.1
2018-Jul-19 17:30N 29°06' W 095°12'3 5.3
2018-Jul-19 17:00N 29°04' W 095°13'3 5.2
2018-Jul-19 16:30N 29°01' W 095°14'3 5.7
2018-Jul-19 16:00N 28°59' W 095°16'3 5.7
2018-Jul-19 15:24N 28°57' W 095°19'5 2.1
2018-Jul-19 12:55N 28°54' W 095°24'2 2.3
2018-Jul-19 12:13N 28°54' W 095°22'1 3.5
2018-Jul-19 12:00N 28°54' W 095°23'1 2.4
2018-Jul-19 11:29N 28°54' W 095°24'0 0.6
2018-Jul-19 10:59N 28°54' W 095°24'8 1.7
2018-Jul-19 06:20N 28°50' W 095°32'120 2.4
2018-Jul-17 03:53N 27°49' W 097°29'0 0.0
2018-Jul-17 03:29N 27°49' W 097°29'0 0.0
2018-Jul-17 01:14N 27°49' W 097°29'0 0.0
2018-Jul-17 00:56N 27°49' W 097°29'52 3.2
2018-Jul-16 08:44N 28°19' W 096°41'1 2.4
2018-Jul-16 08:18N 28°19' W 096°40'0 0.0
2018-Jul-16 07:59N 28°19' W 096°40'0 0.0
2018-Jul-16 07:30N 28°19' W 096°40'0 0.0
2018-Jul-16 06:59N 28°19' W 096°40'75 2.2
2018-Jul-14 21:02N 28°54' W 095°24'4 2.8
2018-Jul-14 19:33N 28°56' W 095°20'1 5.4
2018-Jul-14 19:18N 28°57' W 095°18'2 5.5
2018-Jul-14 18:59N 28°58' W 095°17'1 2.7
2018-Jul-14 18:30N 28°59' W 095°16'0 0.0
2018-Jul-14 18:00N 28°59' W 095°16'1 2.3
2018-Jul-14 17:30N 28°60' W 095°15'2 4.6
2018-Jul-14 17:00N 29°02' W 095°14'3 5.4
2018-Jul-14 16:30N 29°04' W 095°13'3 5.7
2018-Jul-14 16:00N 29°07' W 095°12'3 6.1
2018-Jul-14 15:30N 29°09' W 095°09'3 6.7
2018-Jul-14 15:00N 29°11' W 095°06'3 6.7
2018-Jul-14 14:30N 29°13' W 095°02'6 6.2
2018-Jul-14 13:30N 29°17' W 094°58'3 5.1
2018-Jul-14 12:59N 29°17' W 094°55'3 5.4
2018-Jul-14 12:30N 29°19' W 094°52'4 6.8
2018-Jul-14 11:53N 29°21' W 094°48'20 5.8
2018-Jul-14 08:20N 29°32' W 094°29'2 5.2
2018-Jul-14 07:59N 29°34' W 094°27'2 4.7
2018-Jul-14 07:28N 29°35' W 094°25'2 5.2
2018-Jul-14 07:00N 29°36' W 094°22'3 5.5
2018-Jul-14 06:30N 29°37' W 094°20'3 5.8
2018-Jul-14 06:00N 29°39' W 094°17'3 5.8
2018-Jul-14 05:30N 29°40' W 094°14'3 5.9
2018-Jul-14 05:00N 29°41' W 094°11'2 4.4
2018-Jul-14 04:30N 29°42' W 094°08'2 3.9
2018-Jul-14 04:00N 29°43' W 094°07'3 5.4
2018-Jul-14 03:30N 29°45' W 094°04'2 4.0
2018-Jul-14 03:00N 29°46' W 094°02'2 5.0
2018-Jul-14 02:30N 29°48' W 094°00'2 3.9
2018-Jul-14 02:00N 29°49' W 093°58'3 6.6
2018-Jul-14 01:30N 29°52' W 093°56'4 8.5
2018-Jul-14 01:00N 29°55' W 093°53'4 7.2
2018-Jul-14 00:30N 29°59' W 093°52'4 7.1
2018-Jul-14 00:01N 29°59' W 093°56'1 1.7
2018-Jul-13 23:30N 29°60' W 093°55'0 0.0
2018-Jul-13 23:00N 29°60' W 093°55'1 1.1
2018-Jul-13 22:30N 29°59' W 093°54'3 6.0
2018-Jul-13 22:00N 29°58' W 093°51'3 5.3
2018-Jul-13 21:30N 29°55' W 093°53'0 0.0
2018-Jul-13 21:01N 29°55' W 093°53'0 0.1
2018-Jul-13 20:29N 29°55' W 093°53'0 0.0
2018-Jul-13 19:59N 29°55' W 093°53'0 0.0
2018-Jul-13 19:29N 29°55' W 093°53'0 0.0
2018-Jul-13 18:59N 29°55' W 093°53'0 0.0
2018-Jul-13 18:29N 29°55' W 093°53'0 0.0
2018-Jul-13 17:59N 29°55' W 093°53'0 0.0
2018-Jul-13 17:29N 29°55' W 093°53'0 0.0
2018-Jul-13 16:59N 29°55' W 093°53'0 0.0
2018-Jul-13 16:29N 29°55' W 093°53'0 0.0
2018-Jul-13 16:00N 29°55' W 093°53'1 2.9
2018-Jul-13 15:30N 29°56' W 093°52'2 5.0
2018-Jul-13 15:00N 29°59' W 093°52'3 2.8
2018-Jul-13 14:00N 29°60' W 093°55'1 1.0
2018-Jul-13 13:30N 29°60' W 093°55'0 0.2
2018-Jul-13 13:00N 29°60' W 093°55'0 0.0
2018-Jul-13 12:28N 29°60' W 093°55'0 0.0
2018-Jul-13 11:58N 29°60' W 093°55'0 0.0
2018-Jul-13 11:30N 29°60' W 093°55'0 0.0
2018-Jul-13 11:00N 29°60' W 093°55'0 0.0
2018-Jul-13 10:30N 29°60' W 093°55'0 0.0
2018-Jul-13 10:00N 29°60' W 093°55'0 0.0
2018-Jul-13 09:30N 29°60' W 093°55'0 0.0
2018-Jul-13 09:00N 29°60' W 093°55'0 0.0
2018-Jul-13 08:30N 29°60' W 093°55'0 0.0
2018-Jul-13 08:00N 29°60' W 093°55'0 0.0
2018-Jul-13 07:30N 29°60' W 093°55'0 0.0
2018-Jul-13 07:00N 29°60' W 093°55'0 0.0
2018-Jul-13 06:30N 29°60' W 093°55'0 0.0
2018-Jul-13 06:00N 29°60' W 093°55'0 0.0
2018-Jul-13 05:30N 29°60' W 093°55'0 0.0
2018-Jul-13 05:00N 29°60' W 093°55'0 0.5
2018-Jul-13 04:30N 29°59' W 093°54'3 5.3
2018-Jul-13 04:00N 29°59' W 093°52'3 5.7
2018-Jul-13 03:30N 29°56' W 093°52'3 5.6
2018-Jul-13 03:00N 29°54' W 093°55'3 5.2
2018-Jul-13 02:30N 29°52' W 093°56'2 4.2
2018-Jul-13 02:00N 29°50' W 093°58'1 1.8
2018-Jul-13 01:29N 29°51' W 093°58'0 0.0
2018-Jul-13 00:59N 29°51' W 093°58'0 0.0
2018-Jul-13 00:29N 29°51' W 093°58'0 0.0
2018-Jul-12 23:59N 29°51' W 093°58'0 0.0
2018-Jul-12 23:29N 29°51' W 093°58'0 0.0
2018-Jul-12 22:59N 29°51' W 093°58'0 0.0
2018-Jul-12 22:29N 29°51' W 093°58'0 0.0
2018-Jul-12 21:59N 29°51' W 093°58'0 0.0
2018-Jul-12 21:29N 29°51' W 093°58'0 0.0
2018-Jul-12 20:59N 29°51' W 093°58'0 0.0
2018-Jul-12 20:29N 29°51' W 093°58'0 0.0
2018-Jul-12 19:59N 29°51' W 093°58'0 0.0
2018-Jul-12 19:29N 29°51' W 093°58'0 0.0
2018-Jul-12 18:59N 29°51' W 093°58'0 0.0
2018-Jul-12 18:29N 29°51' W 093°58'0 0.0
2018-Jul-12 17:59N 29°51' W 093°58'0 0.0
2018-Jul-12 17:29N 29°51' W 093°58'0 0.0
2018-Jul-12 16:59N 29°51' W 093°58'0 0.0
2018-Jul-12 16:29N 29°51' W 093°58'0 0.0
2018-Jul-12 15:59N 29°51' W 093°58'0 0.0
2018-Jul-12 15:29N 29°51' W 093°58'0 0.0
2018-Jul-12 14:59N 29°51' W 093°58'0 0.0
2018-Jul-12 14:29N 29°51' W 093°58'0 0.0
2018-Jul-12 13:59N 29°51' W 093°58'0 0.0
2018-Jul-12 13:29N 29°51' W 093°58'0 0.0
2018-Jul-12 12:59N 29°51' W 093°58'0 0.0
2018-Jul-12 12:29N 29°51' W 093°58'0 0.0
2018-Jul-12 11:59N 29°51' W 093°58'0 0.0
2018-Jul-12 11:27N 29°51' W 093°58'0 0.0
2018-Jul-12 11:00N 29°51' W 093°58'0 0.0
2018-Jul-12 10:30N 29°51' W 093°58'0 0.0
2018-Jul-12 10:00N 29°51' W 093°58'0 0.0
2018-Jul-12 09:30N 29°51' W 093°58'0 0.0
2018-Jul-12 09:00N 29°51' W 093°58'0 0.0
2018-Jul-12 08:30N 29°51' W 093°58'0 0.0
2018-Jul-12 08:00N 29°51' W 093°58'0 0.0
2018-Jul-12 07:30N 29°51' W 093°58'0 0.0
2018-Jul-12 07:00N 29°51' W 093°58'0 0.0
2018-Jul-12 06:30N 29°51' W 093°58'0 0.0
2018-Jul-12 06:00N 29°51' W 093°58'0 0.0
2018-Jul-12 05:30N 29°51' W 093°58'0 0.0
2018-Jul-12 05:00N 29°51' W 093°58'0 0.0
2018-Jul-12 04:30N 29°51' W 093°58'0 0.0
2018-Jul-12 04:00N 29°51' W 093°58'0 0.0
2018-Jul-12 03:30N 29°51' W 093°58'0 0.0
2018-Jul-12 03:00N 29°51' W 093°58'0 0.0
2018-Jul-12 02:30N 29°51' W 093°58'0 0.0
2018-Jul-12 02:00N 29°51' W 093°58'0 0.0
2018-Jul-12 01:30N 29°51' W 093°58'0 0.0
2018-Jul-12 01:00N 29°51' W 093°58'  
Track history (hours):
 
Tides and Currents Weather Stations Pressure Air Temp Water Temp Dewpoint Dewpoint Depression Visibility Wind Speed Wind Dir Waves Ship Positions

Niceville

Owner: Kirby Inland Marine LP, Houston, TX. More information available from US FCC via Universal Licensing System and Coast Guard Vessel Documentation Center.

Last reported at 2018-Jul-22 00:58 UTC. Time now 2018-Jul-22 01:15 UTC.
Position N 28°54' W 095°23'.

Length 114 m; draft 2.6 m.

Type: . MMSI: 367417570.

Date/timePositionNaut miles runAvg speedWind from/ knotsBaromVisibWave heightAir tempDewpointWater temp
2018-Jul-22 00:58N 28°54' W 095°23'0 0.7
2018-Jul-22 00:22N 28°54' W 095°23'1 2.4
2018-Jul-21 23:49N 28°54' W 095°25'1 4.0
2018-Jul-21 23:29N 28°54' W 095°23'1 2.1
2018-Jul-21 23:00N 28°54' W 095°22'5 6.1
2018-Jul-21 22:06N 28°58' W 095°17'1 6.4
2018-Jul-21 21:59N 28°58' W 095°17'3 6.6
2018-Jul-21 21:29N 29°01' W 095°14'3 6.0
2018-Jul-21 21:00N 29°04' W 095°13'3 5.6
2018-Jul-21 20:30N 29°06' W 095°12'2 3.2
2018-Jul-21 20:00N 29°07' W 095°11'3 5.1
2018-Jul-21 19:30N 29°09' W 095°09'3 6.0
2018-Jul-21 19:00N 29°11' W 095°06'3 6.1
2018-Jul-21 18:30N 29°12' W 095°03'1 2.4
2018-Jul-21 18:00N 29°13' W 095°02'3 6.2
2018-Jul-21 17:30N 29°16' W 094°60'4 5.9
2018-Jul-21 16:51N 29°17' W 094°56'2 6.0
2018-Jul-21 16:30N 29°17' W 094°53'2 4.8
2018-Jul-21 16:00N 29°19' W 094°52'3 5.3
2018-Jul-21 15:29N 29°21' W 094°49'2 4.7
2018-Jul-21 15:00N 29°22' W 094°51'2 4.7
2018-Jul-21 14:30N 29°22' W 094°54'1 1.9
2018-Jul-21 14:00N 29°22' W 094°55'0 0.0
2018-Jul-21 13:27N 29°22' W 094°55'0 0.0
2018-Jul-21 13:00N 29°22' W 094°55'0 0.0
2018-Jul-21 12:24N 29°22' W 094°55'0 0.0
2018-Jul-21 11:57N 29°22' W 094°55'0 0.0
2018-Jul-21 11:27N 29°22' W 094°55'0 0.0
2018-Jul-21 10:39N 29°22' W 094°55'0 0.0
2018-Jul-21 10:00N 29°22' W 094°55'0 0.0
2018-Jul-21 08:36N 29°22' W 094°55'0 0.0
2018-Jul-21 06:09N 29°22' W 094°55'0 0.0
2018-Jul-21 05:54N 29°22' W 094°55'0 0.0
2018-Jul-21 05:15N 29°22' W 094°55'0 0.0
2018-Jul-21 04:54N 29°22' W 094°55'0 0.0
2018-Jul-21 04:27N 29°22' W 094°55'0 0.0
2018-Jul-21 03:57N 29°22' W 094°55'0 0.0
2018-Jul-21 03:18N 29°22' W 094°55'0 0.0
2018-Jul-21 03:00N 29°22' W 094°55'0 0.0
2018-Jul-21 02:24N 29°22' W 094°55'0 0.0
2018-Jul-21 02:00N 29°22' W 094°55'0 0.0
2018-Jul-21 01:24N 29°22' W 094°55'0 0.0
2018-Jul-21 01:00N 29°22' W 094°55'0 0.0
2018-Jul-21 00:30N 29°22' W 094°55'0 0.0
2018-Jul-21 00:00N 29°22' W 094°55'0 0.0
2018-Jul-20 23:18N 29°22' W 094°55'0 0.0
2018-Jul-20 23:00N 29°22' W 094°55'0 0.0
2018-Jul-20 22:21N 29°22' W 094°55'0 0.0
2018-Jul-20 21:54N 29°22' W 094°55'0 0.0
2018-Jul-20 21:30N 29°22' W 094°55'0 0.0
2018-Jul-20 21:00N 29°22' W 094°55'0 0.0
2018-Jul-20 20:30N 29°22' W 094°55'0 0.0
2018-Jul-20 20:00N 29°22' W 094°55'0 0.0
2018-Jul-20 19:30N 29°22' W 094°55'0 0.0
2018-Jul-20 19:00N 29°22' W 094°55'0 0.0
2018-Jul-20 18:30N 29°22' W 094°55'0 0.1
2018-Jul-20 17:59N 29°22' W 094°55'1 2.9
2018-Jul-20 17:30N 29°22' W 094°53'1 2.1
2018-Jul-20 17:00N 29°23' W 094°52'0 0.0
2018-Jul-20 16:25N 29°23' W 094°52'0 0.0
2018-Jul-20 13:31N 29°23' W 094°52'0 0.0
2018-Jul-20 13:28N 29°23' W 094°52'0 0.0
2018-Jul-20 12:58N 29°23' W 094°52'0 0.0
2018-Jul-20 12:30N 29°23' W 094°52'0 0.5
2018-Jul-20 12:00N 29°23' W 094°52'1 1.1
2018-Jul-20 10:56N 29°23' W 094°54'0 0.0
2018-Jul-20 10:29N 29°23' W 094°54'0 0.0
2018-Jul-20 08:47N 29°23' W 094°54'0 0.0
2018-Jul-20 07:50N 29°23' W 094°54'0 0.0
2018-Jul-20 07:29N 29°23' W 094°54'0 0.0
2018-Jul-20 06:47N 29°23' W 094°54'0 0.0
2018-Jul-20 06:20N 29°23' W 094°54'0 0.0
2018-Jul-20 05:59N 29°23' W 094°54'0 0.0
2018-Jul-20 05:26N 29°23' W 094°54'1 1.6
2018-Jul-20 04:57N 29°23' W 094°53'1 1.6
2018-Jul-20 04:30N 29°23' W 094°52'0 0.0
2018-Jul-20 04:00N 29°23' W 094°52'0 0.0
2018-Jul-20 03:24N 29°23' W 094°52'0 0.0
2018-Jul-20 03:00N 29°23' W 094°52'0 0.0
2018-Jul-20 02:30N 29°23' W 094°52'0 0.0
2018-Jul-20 02:00N 29°23' W 094°52'0 0.0
2018-Jul-20 01:30N 29°23' W 094°52'0 0.0
2018-Jul-20 00:57N 29°23' W 094°52'0 0.1
2018-Jul-20 00:29N 29°23' W 094°52'0 0.5
2018-Jul-20 00:00N 29°23' W 094°52'3 4.3
2018-Jul-19 23:15N 29°21' W 094°48'0 1.1
2018-Jul-19 22:52N 29°21' W 094°49'1 1.7
2018-Jul-19 22:30N 29°21' W 094°49'3 5.8
2018-Jul-19 22:00N 29°19' W 094°52'3 5.1
2018-Jul-19 21:30N 29°17' W 094°54'2 4.7
2018-Jul-19 21:00N 29°17' W 094°57'3 5.4
2018-Jul-19 20:30N 29°16' W 094°59'3 5.1
2018-Jul-19 20:00N 29°14' W 095°01'2 4.7
2018-Jul-19 19:30N 29°12' W 095°03'3 5.1
2018-Jul-19 19:00N 29°11' W 095°05'3 5.3
2018-Jul-19 18:30N 29°10' W 095°08'3 5.5
2018-Jul-19 18:00N 29°08' W 095°10'2 4.1
2018-Jul-19 17:30N 29°06' W 095°12'3 5.3
2018-Jul-19 17:00N 29°04' W 095°13'3 5.2
2018-Jul-19 16:30N 29°01' W 095°14'3 5.7
2018-Jul-19 16:00N 28°59' W 095°16'3 5.7
2018-Jul-19 15:24N 28°57' W 095°19'5 2.1
2018-Jul-19 12:55N 28°54' W 095°24'2 2.3
2018-Jul-19 12:13N 28°54' W 095°22'1 3.5
2018-Jul-19 12:00N 28°54' W 095°23'1 2.4
2018-Jul-19 11:29N 28°54' W 095°24'0 0.6
2018-Jul-19 10:59N 28°54' W 095°24'8 1.7
2018-Jul-19 06:20N 28°50' W 095°32'120 2.4
2018-Jul-17 03:53N 27°49' W 097°29'0 0.0
2018-Jul-17 03:29N 27°49' W 097°29'0 0.0
2018-Jul-17 01:14N 27°49' W 097°29'0 0.0
2018-Jul-17 00:56N 27°49' W 097°29'52 3.2
2018-Jul-16 08:44N 28°19' W 096°41'1 2.4
2018-Jul-16 08:18N 28°19' W 096°40'0 0.0
2018-Jul-16 07:59N 28°19' W 096°40'0 0.0
2018-Jul-16 07:30N 28°19' W 096°40'0 0.0
2018-Jul-16 06:59N 28°19' W 096°40'75 2.2
2018-Jul-14 21:02N 28°54' W 095°24'4 2.8
2018-Jul-14 19:33N 28°56' W 095°20'1 5.4
2018-Jul-14 19:18N 28°57' W 095°18'2 5.5
2018-Jul-14 18:59N 28°58' W 095°17'1 2.7
2018-Jul-14 18:30N 28°59' W 095°16'0 0.0
2018-Jul-14 18:00N 28°59' W 095°16'1 2.3
2018-Jul-14 17:30N 28°60' W 095°15'2 4.6
2018-Jul-14 17:00N 29°02' W 095°14'3 5.4
2018-Jul-14 16:30N 29°04' W 095°13'3 5.7
2018-Jul-14 16:00N 29°07' W 095°12'3 6.1
2018-Jul-14 15:30N 29°09' W 095°09'3 6.7
2018-Jul-14 15:00N 29°11' W 095°06'3 6.7
2018-Jul-14 14:30N 29°13' W 095°02'6 6.2
2018-Jul-14 13:30N 29°17' W 094°58'3 5.1
2018-Jul-14 12:59N 29°17' W 094°55'3 5.4
2018-Jul-14 12:30N 29°19' W 094°52'4 6.8
2018-Jul-14 11:53N 29°21' W 094°48'20 5.8
2018-Jul-14 08:20N 29°32' W 094°29'2 5.2
2018-Jul-14 07:59N 29°34' W 094°27'2 4.7
2018-Jul-14 07:28N 29°35' W 094°25'2 5.2
2018-Jul-14 07:00N 29°36' W 094°22'3 5.5
2018-Jul-14 06:30N 29°37' W 094°20'3 5.8
2018-Jul-14 06:00N 29°39' W 094°17'3 5.8
2018-Jul-14 05:30N 29°40' W 094°14'3 5.9
2018-Jul-14 05:00N 29°41' W 094°11'2 4.4
2018-Jul-14 04:30N 29°42' W 094°08'2 3.9
2018-Jul-14 04:00N 29°43' W 094°07'3 5.4
2018-Jul-14 03:30N 29°45' W 094°04'2 4.0
2018-Jul-14 03:00N 29°46' W 094°02'2 5.0
2018-Jul-14 02:30N 29°48' W 094°00'2 3.9
2018-Jul-14 02:00N 29°49' W 093°58'3 6.6
2018-Jul-14 01:30N 29°52' W 093°56'4 8.5
2018-Jul-14 01:00N 29°55' W 093°53'4 7.2
2018-Jul-14 00:30N 29°59' W 093°52'4 7.1
2018-Jul-14 00:01N 29°59' W 093°56'1 1.7
2018-Jul-13 23:30N 29°60' W 093°55'0 0.0
2018-Jul-13 23:00N 29°60' W 093°55'1 1.1
2018-Jul-13 22:30N 29°59' W 093°54'3 6.0
2018-Jul-13 22:00N 29°58' W 093°51'3 5.3
2018-Jul-13 21:30N 29°55' W 093°53'0 0.0
2018-Jul-13 21:01N 29°55' W 093°53'0 0.1
2018-Jul-13 20:29N 29°55' W 093°53'0 0.0
2018-Jul-13 19:59N 29°55' W 093°53'0 0.0
2018-Jul-13 19:29N 29°55' W 093°53'0 0.0
2018-Jul-13 18:59N 29°55' W 093°53'0 0.0
2018-Jul-13 18:29N 29°55' W 093°53'0 0.0
2018-Jul-13 17:59N 29°55' W 093°53'0 0.0
2018-Jul-13 17:29N 29°55' W 093°53'0 0.0
2018-Jul-13 16:59N 29°55' W 093°53'0 0.0
2018-Jul-13 16:29N 29°55' W 093°53'0 0.0
2018-Jul-13 16:00N 29°55' W 093°53'1 2.9
2018-Jul-13 15:30N 29°56' W 093°52'2 5.0
2018-Jul-13 15:00N 29°59' W 093°52'3 2.8
2018-Jul-13 14:00N 29°60' W 093°55'1 1.0
2018-Jul-13 13:30N 29°60' W 093°55'0 0.2
2018-Jul-13 13:00N 29°60' W 093°55'0 0.0
2018-Jul-13 12:28N 29°60' W 093°55'0 0.0
2018-Jul-13 11:58N 29°60' W 093°55'0 0.0
2018-Jul-13 11:30N 29°60' W 093°55'0 0.0
2018-Jul-13 11:00N 29°60' W 093°55'0 0.0
2018-Jul-13 10:30N 29°60' W 093°55'0 0.0
2018-Jul-13 10:00N 29°60' W 093°55'0 0.0
2018-Jul-13 09:30N 29°60' W 093°55'0 0.0
2018-Jul-13 09:00N 29°60' W 093°55'0 0.0
2018-Jul-13 08:30N 29°60' W 093°55'0 0.0
2018-Jul-13 08:00N 29°60' W 093°55'0 0.0
2018-Jul-13 07:30N 29°60' W 093°55'0 0.0
2018-Jul-13 07:00N 29°60' W 093°55'0 0.0
2018-Jul-13 06:30N 29°60' W 093°55'0 0.0
2018-Jul-13 06:00N 29°60' W 093°55'0 0.0
2018-Jul-13 05:30N 29°60' W 093°55'0 0.0
2018-Jul-13 05:00N 29°60' W 093°55'0 0.5
2018-Jul-13 04:30N 29°59' W 093°54'3 5.3
2018-Jul-13 04:00N 29°59' W 093°52'3 5.7
2018-Jul-13 03:30N 29°56' W 093°52'3 5.6
2018-Jul-13 03:00N 29°54' W 093°55'3 5.2
2018-Jul-13 02:30N 29°52' W 093°56'2 4.2
2018-Jul-13 02:00N 29°50' W 093°58'1 1.8
2018-Jul-13 01:29N 29°51' W 093°58'0 0.0
2018-Jul-13 00:59N 29°51' W 093°58'0 0.0
2018-Jul-13 00:29N 29°51' W 093°58'0 0.0
2018-Jul-12 23:59N 29°51' W 093°58'0 0.0
2018-Jul-12 23:29N 29°51' W 093°58'0 0.0
2018-Jul-12 22:59N 29°51' W 093°58'0 0.0
2018-Jul-12 22:29N 29°51' W 093°58'0 0.0
2018-Jul-12 21:59N 29°51' W 093°58'0 0.0
2018-Jul-12 21:29N 29°51' W 093°58'0 0.0
2018-Jul-12 20:59N 29°51' W 093°58'0 0.0
2018-Jul-12 20:29N 29°51' W 093°58'0 0.0
2018-Jul-12 19:59N 29°51' W 093°58'0 0.0
2018-Jul-12 19:29N 29°51' W 093°58'0 0.0
2018-Jul-12 18:59N 29°51' W 093°58'0 0.0
2018-Jul-12 18:29N 29°51' W 093°58'0 0.0
2018-Jul-12 17:59N 29°51' W 093°58'0 0.0
2018-Jul-12 17:29N 29°51' W 093°58'0 0.0
2018-Jul-12 16:59N 29°51' W 093°58'0 0.0
2018-Jul-12 16:29N 29°51' W 093°58'0 0.0
2018-Jul-12 15:59N 29°51' W 093°58'0 0.0
2018-Jul-12 15:29N 29°51' W 093°58'0 0.0
2018-Jul-12 14:59N 29°51' W 093°58'0 0.0
2018-Jul-12 14:29N 29°51' W 093°58'0 0.0
2018-Jul-12 13:59N 29°51' W 093°58'0 0.0
2018-Jul-12 13:29N 29°51' W 093°58'0 0.0
2018-Jul-12 12:59N 29°51' W 093°58'0 0.0
2018-Jul-12 12:29N 29°51' W 093°58'0 0.0
2018-Jul-12 11:59N 29°51' W 093°58'0 0.0
2018-Jul-12 11:27N 29°51' W 093°58'0 0.0
2018-Jul-12 11:00N 29°51' W 093°58'0 0.0
2018-Jul-12 10:30N 29°51' W 093°58'0 0.0
2018-Jul-12 10:00N 29°51' W 093°58'0 0.0
2018-Jul-12 09:30N 29°51' W 093°58'0 0.0
2018-Jul-12 09:00N 29°51' W 093°58'0 0.0
2018-Jul-12 08:30N 29°51' W 093°58'0 0.0
2018-Jul-12 08:00N 29°51' W 093°58'0 0.0
2018-Jul-12 07:30N 29°51' W 093°58'0 0.0
2018-Jul-12 07:00N 29°51' W 093°58'0 0.0
2018-Jul-12 06:30N 29°51' W 093°58'0 0.0
2018-Jul-12 06:00N 29°51' W 093°58'0 0.0
2018-Jul-12 05:30N 29°51' W 093°58'0 0.0
2018-Jul-12 05:00N 29°51' W 093°58'0 0.0
2018-Jul-12 04:30N 29°51' W 093°58'0 0.0
2018-Jul-12 04:00N 29°51' W 093°58'0 0.0
2018-Jul-12 03:30N 29°51' W 093°58'0 0.0
2018-Jul-12 03:00N 29°51' W 093°58'0 0.0
2018-Jul-12 02:30N 29°51' W 093°58'0 0.0
2018-Jul-12 02:00N 29°51' W 093°58'0 0.0
2018-Jul-12 01:30N 29°51' W 093°58'0 0.0
2018-Jul-12 01:00N 29°51' W 093°58'  

Dump ship's entire track history